sensor_id;sensor_type;location;lat;lon;timestamp;P1;durP1;ratioP1;P2;durP2;ratioP2
75012;SDS011;63567;49.956;20.130;2023-08-31T00:00:27;17.20;;;10.05;;
75012;SDS011;63567;49.956;20.130;2023-08-31T00:02:53;20.33;;;10.90;;
75012;SDS011;63567;49.956;20.130;2023-08-31T00:05:19;16.98;;;10.45;;
75012;SDS011;63567;49.956;20.130;2023-08-31T00:07:44;15.40;;;10.40;;
75012;SDS011;63567;49.956;20.130;2023-08-31T00:10:09;18.37;;;11.50;;
75012;SDS011;63567;49.956;20.130;2023-08-31T00:12:36;17.35;;;11.10;;
75012;SDS011;63567;49.956;20.130;2023-08-31T00:15:02;18.05;;;11.00;;
75012;SDS011;63567;49.956;20.130;2023-08-31T00:17:29;15.52;;;10.50;;
75012;SDS011;63567;49.956;20.130;2023-08-31T00:19:55;16.98;;;10.70;;
75012;SDS011;63567;49.956;20.130;2023-08-31T00:22:20;16.50;;;10.77;;
75012;SDS011;63567;49.956;20.130;2023-08-31T00:24:45;16.30;;;10.63;;
75012;SDS011;63567;49.956;20.130;2023-08-31T00:27:11;16.98;;;10.23;;
75012;SDS011;63567;49.956;20.130;2023-08-31T00:29:40;18.10;;;11.45;;
75012;SDS011;63567;49.956;20.130;2023-08-31T00:32:05;17.58;;;10.65;;
75012;SDS011;63567;49.956;20.130;2023-08-31T00:34:31;17.30;;;11.40;;
75012;SDS011;63567;49.956;20.130;2023-08-31T00:36:57;18.48;;;11.50;;
75012;SDS011;63567;49.956;20.130;2023-08-31T00:39:22;19.63;;;12.38;;
75012;SDS011;63567;49.956;20.130;2023-08-31T00:41:47;18.70;;;11.10;;
75012;SDS011;63567;49.956;20.130;2023-08-31T00:44:13;18.63;;;11.20;;
75012;SDS011;63567;49.956;20.130;2023-08-31T00:46:38;20.47;;;11.70;;
75012;SDS011;63567;49.956;20.130;2023-08-31T00:49:05;22.10;;;11.90;;
75012;SDS011;63567;49.956;20.130;2023-08-31T00:51:30;17.80;;;11.40;;
75012;SDS011;63567;49.956;20.130;2023-08-31T00:53:55;20.83;;;11.50;;
75012;SDS011;63567;49.956;20.130;2023-08-31T00:56:25;20.05;;;11.43;;
75012;SDS011;63567;49.956;20.130;2023-08-31T00:58:51;16.98;;;11.10;;
75012;SDS011;63567;49.956;20.130;2023-08-31T01:01:27;16.60;;;10.97;;
75012;SDS011;63567;49.956;20.130;2023-08-31T01:07:21;15.57;;;10.48;;
75012;SDS011;63567;49.956;20.130;2023-08-31T01:12:47;16.27;;;11.18;;
75012;SDS011;63567;49.956;20.130;2023-08-31T01:15:14;16.50;;;11.02;;
75012;SDS011;63567;49.956;20.130;2023-08-31T01:17:44;16.20;;;10.80;;
75012;SDS011;63567;49.956;20.130;2023-08-31T01:20:14;17.67;;;11.60;;
75012;SDS011;63567;49.956;20.130;2023-08-31T01:23:04;18.00;;;11.30;;
75012;SDS011;63567;49.956;20.130;2023-08-31T01:25:35;18.17;;;10.73;;
75012;SDS011;63567;49.956;20.130;2023-08-31T01:28:01;18.00;;;11.70;;
75012;SDS011;63567;49.956;20.130;2023-08-31T01:30:31;17.52;;;11.70;;
75012;SDS011;63567;49.956;20.130;2023-08-31T01:32:57;16.95;;;11.70;;
75012;SDS011;63567;49.956;20.130;2023-08-31T01:35:23;18.33;;;11.48;;
75012;SDS011;63567;49.956;20.130;2023-08-31T01:37:53;19.55;;;11.85;;
75012;SDS011;63567;49.956;20.130;2023-08-31T01:40:23;20.80;;;12.25;;
75012;SDS011;63567;49.956;20.130;2023-08-31T01:42:57;19.42;;;12.00;;
75012;SDS011;63567;49.956;20.130;2023-08-31T01:45:24;19.38;;;12.02;;
75012;SDS011;63567;49.956;20.130;2023-08-31T01:47:50;20.48;;;14.30;;
75012;SDS011;63567;49.956;20.130;2023-08-31T01:50:16;20.50;;;12.65;;
75012;SDS011;63567;49.956;20.130;2023-08-31T01:52:41;21.15;;;12.82;;
75012;SDS011;63567;49.956;20.130;2023-08-31T01:55:07;18.43;;;12.23;;
75012;SDS011;63567;49.956;20.130;2023-08-31T01:57:32;21.08;;;13.27;;
75012;SDS011;63567;49.956;20.130;2023-08-31T01:59:58;21.58;;;12.50;;
75012;SDS011;63567;49.956;20.130;2023-08-31T02:02:24;18.55;;;12.20;;
75012;SDS011;63567;49.956;20.130;2023-08-31T02:04:50;20.60;;;12.75;;
75012;SDS011;63567;49.956;20.130;2023-08-31T02:07:18;22.13;;;12.95;;
75012;SDS011;63567;49.956;20.130;2023-08-31T02:09:44;20.02;;;12.82;;
75012;SDS011;63567;49.956;20.130;2023-08-31T02:12:09;20.60;;;13.68;;
75012;SDS011;63567;49.956;20.130;2023-08-31T02:14:35;22.00;;;14.30;;
75012;SDS011;63567;49.956;20.130;2023-08-31T02:17:00;20.20;;;13.35;;
75012;SDS011;63567;49.956;20.130;2023-08-31T02:19:25;22.20;;;12.90;;
75012;SDS011;63567;49.956;20.130;2023-08-31T02:21:51;21.07;;;12.93;;
75012;SDS011;63567;49.956;20.130;2023-08-31T02:24:16;19.27;;;12.00;;
75012;SDS011;63567;49.956;20.130;2023-08-31T02:26:41;21.20;;;12.77;;
75012;SDS011;63567;49.956;20.130;2023-08-31T02:29:06;20.27;;;12.73;;
75012;SDS011;63567;49.956;20.130;2023-08-31T02:31:32;22.63;;;14.50;;
75012;SDS011;63567;49.956;20.130;2023-08-31T02:33:57;21.80;;;12.73;;
75012;SDS011;63567;49.956;20.130;2023-08-31T02:36:23;21.20;;;12.63;;
75012;SDS011;63567;49.956;20.130;2023-08-31T02:38:48;22.23;;;12.70;;
75012;SDS011;63567;49.956;20.130;2023-08-31T02:41:15;22.50;;;13.90;;
75012;SDS011;63567;49.956;20.130;2023-08-31T02:43:41;22.85;;;13.85;;
75012;SDS011;63567;49.956;20.130;2023-08-31T02:46:06;22.97;;;13.80;;
75012;SDS011;63567;49.956;20.130;2023-08-31T02:48:32;22.20;;;13.03;;
75012;SDS011;63567;49.956;20.130;2023-08-31T02:50:58;23.20;;;13.50;;
75012;SDS011;63567;49.956;20.130;2023-08-31T02:53:28;22.25;;;13.68;;
75012;SDS011;63567;49.956;20.130;2023-08-31T02:55:54;20.95;;;13.20;;
75012;SDS011;63567;49.956;20.130;2023-08-31T02:58:19;24.63;;;14.13;;
75012;SDS011;63567;49.956;20.130;2023-08-31T03:00:45;21.67;;;13.10;;
75012;SDS011;63567;49.956;20.130;2023-08-31T03:03:13;21.75;;;14.35;;
75012;SDS011;63567;49.956;20.130;2023-08-31T03:05:39;21.00;;;13.18;;
75012;SDS011;63567;49.956;20.130;2023-08-31T03:08:05;24.63;;;14.20;;
75012;SDS011;63567;49.956;20.130;2023-08-31T03:10:30;23.67;;;14.48;;
75012;SDS011;63567;49.956;20.130;2023-08-31T03:12:55;22.80;;;14.27;;
75012;SDS011;63567;49.956;20.130;2023-08-31T03:15:20;23.80;;;14.50;;
75012;SDS011;63567;49.956;20.130;2023-08-31T03:17:46;24.40;;;14.47;;
75012;SDS011;63567;49.956;20.130;2023-08-31T03:20:11;22.50;;;14.23;;
75012;SDS011;63567;49.956;20.130;2023-08-31T03:22:36;22.80;;;14.00;;
75012;SDS011;63567;49.956;20.130;2023-08-31T03:25:01;24.13;;;14.30;;
75012;SDS011;63567;49.956;20.130;2023-08-31T03:27:27;26.15;;;15.20;;
75012;SDS011;63567;49.956;20.130;2023-08-31T03:29:52;23.63;;;15.03;;
75012;SDS011;63567;49.956;20.130;2023-08-31T03:32:18;23.57;;;14.77;;
75012;SDS011;63567;49.956;20.130;2023-08-31T03:34:43;23.80;;;15.00;;
75012;SDS011;63567;49.956;20.130;2023-08-31T03:37:09;24.52;;;14.85;;
75012;SDS011;63567;49.956;20.130;2023-08-31T03:39:34;25.43;;;15.27;;
75012;SDS011;63567;49.956;20.130;2023-08-31T03:42:00;24.17;;;14.43;;
75012;SDS011;63567;49.956;20.130;2023-08-31T03:44:25;24.08;;;14.82;;
75012;SDS011;63567;49.956;20.130;2023-08-31T03:46:50;26.30;;;15.33;;
75012;SDS011;63567;49.956;20.130;2023-08-31T03:49:15;26.53;;;14.73;;
75012;SDS011;63567;49.956;20.130;2023-08-31T03:51:41;26.23;;;15.50;;
75012;SDS011;63567;49.956;20.130;2023-08-31T03:54:06;25.90;;;14.47;;
75012;SDS011;63567;49.956;20.130;2023-08-31T03:56:31;25.53;;;15.20;;
75012;SDS011;63567;49.956;20.130;2023-08-31T03:58:57;24.70;;;14.13;;
75012;SDS011;63567;49.956;20.130;2023-08-31T04:01:22;26.20;;;15.30;;
75012;SDS011;63567;49.956;20.130;2023-08-31T04:03:48;24.15;;;13.30;;
75012;SDS011;63567;49.956;20.130;2023-08-31T04:06:13;22.30;;;15.18;;
75012;SDS011;63567;49.956;20.130;2023-08-31T04:08:39;24.43;;;13.83;;
75012;SDS011;63567;49.956;20.130;2023-08-31T04:11:04;21.07;;;13.17;;
75012;SDS011;63567;49.956;20.130;2023-08-31T04:13:29;21.13;;;12.57;;
75012;SDS011;63567;49.956;20.130;2023-08-31T04:15:54;22.63;;;12.50;;
75012;SDS011;63567;49.956;20.130;2023-08-31T04:18:20;23.30;;;13.55;;
75012;SDS011;63567;49.956;20.130;2023-08-31T04:20:48;23.02;;;13.90;;
75012;SDS011;63567;49.956;20.130;2023-08-31T04:23:14;20.98;;;12.70;;
75012;SDS011;63567;49.956;20.130;2023-08-31T04:25:40;24.23;;;13.30;;
75012;SDS011;63567;49.956;20.130;2023-08-31T04:28:05;22.00;;;12.93;;
75012;SDS011;63567;49.956;20.130;2023-08-31T04:30:30;24.13;;;13.80;;
75012;SDS011;63567;49.956;20.130;2023-08-31T04:32:56;21.08;;;12.40;;
75012;SDS011;63567;49.956;20.130;2023-08-31T04:35:21;20.50;;;12.57;;
75012;SDS011;63567;49.956;20.130;2023-08-31T04:37:46;21.13;;;12.53;;
75012;SDS011;63567;49.956;20.130;2023-08-31T04:40:12;19.17;;;11.43;;
75012;SDS011;63567;49.956;20.130;2023-08-31T04:42:37;20.73;;;12.15;;
75012;SDS011;63567;49.956;20.130;2023-08-31T04:45:03;21.90;;;12.73;;
75012;SDS011;63567;49.956;20.130;2023-08-31T04:47:29;20.98;;;12.73;;
75012;SDS011;63567;49.956;20.130;2023-08-31T04:49:54;20.50;;;12.87;;
75012;SDS011;63567;49.956;20.130;2023-08-31T04:52:19;18.53;;;12.17;;
75012;SDS011;63567;49.956;20.130;2023-08-31T04:54:44;22.13;;;13.83;;
75012;SDS011;63567;49.956;20.130;2023-08-31T04:57:09;21.53;;;13.60;;
75012;SDS011;63567;49.956;20.130;2023-08-31T04:59:35;22.25;;;13.82;;
75012;SDS011;63567;49.956;20.130;2023-08-31T05:02:00;23.07;;;13.73;;
75012;SDS011;63567;49.956;20.130;2023-08-31T05:04:25;23.50;;;13.90;;
75012;SDS011;63567;49.956;20.130;2023-08-31T05:06:51;23.10;;;14.27;;
75012;SDS011;63567;49.956;20.130;2023-08-31T05:09:16;22.60;;;14.50;;
75012;SDS011;63567;49.956;20.130;2023-08-31T05:11:41;24.17;;;14.03;;
75012;SDS011;63567;49.956;20.130;2023-08-31T05:14:07;26.87;;;15.23;;
75012;SDS011;63567;49.956;20.130;2023-08-31T05:16:32;26.43;;;15.23;;
75012;SDS011;63567;49.956;20.130;2023-08-31T05:18:57;27.07;;;16.40;;
75012;SDS011;63567;49.956;20.130;2023-08-31T05:21:22;28.83;;;15.57;;
75012;SDS011;63567;49.956;20.130;2023-08-31T05:23:48;23.73;;;14.43;;
75012;SDS011;63567;49.956;20.130;2023-08-31T05:26:13;23.00;;;13.47;;
75012;SDS011;63567;49.956;20.130;2023-08-31T05:28:40;24.33;;;13.68;;
75012;SDS011;63567;49.956;20.130;2023-08-31T05:31:05;21.10;;;13.17;;
75012;SDS011;63567;49.956;20.130;2023-08-31T05:33:30;21.20;;;12.30;;
75012;SDS011;63567;49.956;20.130;2023-08-31T05:35:59;20.02;;;12.25;;
75012;SDS011;63567;49.956;20.130;2023-08-31T05:38:25;21.23;;;12.80;;
75012;SDS011;63567;49.956;20.130;2023-08-31T05:40:51;20.03;;;12.33;;
75012;SDS011;63567;49.956;20.130;2023-08-31T05:43:16;18.30;;;11.63;;
75012;SDS011;63567;49.956;20.130;2023-08-31T05:45:41;17.70;;;11.10;;
75012;SDS011;63567;49.956;20.130;2023-08-31T05:48:07;19.48;;;12.75;;
75012;SDS011;63567;49.956;20.130;2023-08-31T05:50:33;16.92;;;10.77;;
75012;SDS011;63567;49.956;20.130;2023-08-31T05:52:58;17.70;;;11.40;;
75012;SDS011;63567;49.956;20.130;2023-08-31T05:55:24;17.15;;;10.35;;
75012;SDS011;63567;49.956;20.130;2023-08-31T05:57:49;16.33;;;10.53;;
75012;SDS011;63567;49.956;20.130;2023-08-31T06:00:14;15.07;;;9.67;;
75012;SDS011;63567;49.956;20.130;2023-08-31T06:02:41;15.13;;;10.88;;
75012;SDS011;63567;49.956;20.130;2023-08-31T06:05:07;15.68;;;9.57;;
75012;SDS011;63567;49.956;20.130;2023-08-31T06:07:32;13.68;;;8.88;;
75012;SDS011;63567;49.956;20.130;2023-08-31T06:09:58;14.57;;;9.02;;
75012;SDS011;63567;49.956;20.130;2023-08-31T06:12:23;12.67;;;8.77;;
75012;SDS011;63567;49.956;20.130;2023-08-31T06:14:48;12.52;;;8.52;;
75012;SDS011;63567;49.956;20.130;2023-08-31T06:17:14;13.00;;;8.90;;
75012;SDS011;63567;49.956;20.130;2023-08-31T06:19:39;12.40;;;8.43;;
75012;SDS011;63567;49.956;20.130;2023-08-31T06:22:05;11.73;;;7.85;;
75012;SDS011;63567;49.956;20.130;2023-08-31T06:24:30;11.67;;;7.90;;
75012;SDS011;63567;49.956;20.130;2023-08-31T06:26:57;11.35;;;7.47;;
75012;SDS011;63567;49.956;20.130;2023-08-31T06:29:22;9.45;;;6.97;;
75012;SDS011;63567;49.956;20.130;2023-08-31T06:31:48;7.93;;;6.07;;
75012;SDS011;63567;49.956;20.130;2023-08-31T06:34:13;9.70;;;6.90;;
75012;SDS011;63567;49.956;20.130;2023-08-31T06:36:38;9.43;;;6.40;;
75012;SDS011;63567;49.956;20.130;2023-08-31T06:39:03;8.37;;;5.70;;
75012;SDS011;63567;49.956;20.130;2023-08-31T06:41:29;9.52;;;6.13;;
75012;SDS011;63567;49.956;20.130;2023-08-31T06:43:55;7.90;;;6.05;;
75012;SDS011;63567;49.956;20.130;2023-08-31T06:46:20;7.77;;;6.00;;
75012;SDS011;63567;49.956;20.130;2023-08-31T06:48:46;6.37;;;5.00;;
75012;SDS011;63567;49.956;20.130;2023-08-31T06:51:11;6.30;;;4.93;;
75012;SDS011;63567;49.956;20.130;2023-08-31T06:53:36;7.03;;;5.03;;
75012;SDS011;63567;49.956;20.130;2023-08-31T06:56:02;6.43;;;4.68;;
75012;SDS011;63567;49.956;20.130;2023-08-31T06:58:27;5.00;;;4.13;;
75012;SDS011;63567;49.956;20.130;2023-08-31T07:00:53;7.23;;;4.60;;
75012;SDS011;63567;49.956;20.130;2023-08-31T07:03:18;5.63;;;4.40;;
75012;SDS011;63567;49.956;20.130;2023-08-31T07:05:43;7.83;;;4.60;;
75012;SDS011;63567;49.956;20.130;2023-08-31T07:08:09;5.63;;;4.33;;
75012;SDS011;63567;49.956;20.130;2023-08-31T07:10:35;5.38;;;4.20;;
75012;SDS011;63567;49.956;20.130;2023-08-31T07:13:01;4.70;;;3.42;;
75012;SDS011;63567;49.956;20.130;2023-08-31T07:15:28;5.10;;;4.22;;
75012;SDS011;63567;49.956;20.130;2023-08-31T07:17:53;5.20;;;4.50;;
75012;SDS011;63567;49.956;20.130;2023-08-31T07:20:19;6.15;;;3.97;;
75012;SDS011;63567;49.956;20.130;2023-08-31T07:22:44;5.00;;;3.60;;
75012;SDS011;63567;49.956;20.130;2023-08-31T07:25:10;7.53;;;4.10;;
75012;SDS011;63567;49.956;20.130;2023-08-31T07:27:35;4.80;;;3.70;;
75012;SDS011;63567;49.956;20.130;2023-08-31T07:30:00;5.40;;;3.63;;
75012;SDS011;63567;49.956;20.130;2023-08-31T07:32:25;4.10;;;3.63;;
75012;SDS011;63567;49.956;20.130;2023-08-31T07:34:51;4.87;;;4.30;;
75012;SDS011;63567;49.956;20.130;2023-08-31T07:37:16;4.50;;;3.57;;
75012;SDS011;63567;49.956;20.130;2023-08-31T07:39:41;4.67;;;3.90;;
75012;SDS011;63567;49.956;20.130;2023-08-31T07:42:06;4.63;;;3.67;;
75012;SDS011;63567;49.956;20.130;2023-08-31T07:44:32;5.17;;;3.33;;
75012;SDS011;63567;49.956;20.130;2023-08-31T07:46:57;4.20;;;3.63;;
75012;SDS011;63567;49.956;20.130;2023-08-31T07:49:22;4.10;;;3.50;;
75012;SDS011;63567;49.956;20.130;2023-08-31T07:51:48;3.87;;;3.17;;
75012;SDS011;63567;49.956;20.130;2023-08-31T07:54:22;3.97;;;2.85;;
75012;SDS011;63567;49.956;20.130;2023-08-31T07:56:48;3.58;;;2.70;;
75012;SDS011;63567;49.956;20.130;2023-08-31T07:59:13;3.85;;;2.72;;
75012;SDS011;63567;49.956;20.130;2023-08-31T08:01:39;3.58;;;2.85;;
75012;SDS011;63567;49.956;20.130;2023-08-31T08:04:06;4.43;;;2.80;;
75012;SDS011;63567;49.956;20.130;2023-08-31T08:06:31;4.40;;;3.10;;
75012;SDS011;63567;49.956;20.130;2023-08-31T08:08:56;3.63;;;2.25;;
75012;SDS011;63567;49.956;20.130;2023-08-31T08:11:22;3.00;;;2.40;;
75012;SDS011;63567;49.956;20.130;2023-08-31T08:13:47;2.95;;;2.53;;
75012;SDS011;63567;49.956;20.130;2023-08-31T08:16:13;3.23;;;2.23;;
75012;SDS011;63567;49.956;20.130;2023-08-31T08:18:39;2.97;;;2.20;;
75012;SDS011;63567;49.956;20.130;2023-08-31T08:21:05;3.13;;;2.22;;
75012;SDS011;63567;49.956;20.130;2023-08-31T08:23:30;3.23;;;2.93;;
75012;SDS011;63567;49.956;20.130;2023-08-31T08:25:55;2.50;;;2.10;;
75012;SDS011;63567;49.956;20.130;2023-08-31T08:28:20;3.37;;;3.07;;
75012;SDS011;63567;49.956;20.130;2023-08-31T08:30:46;2.70;;;2.10;;
75012;SDS011;63567;49.956;20.130;2023-08-31T08:33:11;2.70;;;1.90;;
75012;SDS011;63567;49.956;20.130;2023-08-31T08:35:39;3.07;;;2.77;;
75012;SDS011;63567;49.956;20.130;2023-08-31T08:38:04;2.80;;;1.95;;
75012;SDS011;63567;49.956;20.130;2023-08-31T08:40:33;3.10;;;2.27;;
75012;SDS011;63567;49.956;20.130;2023-08-31T08:43:00;2.45;;;1.73;;
75012;SDS011;63567;49.956;20.130;2023-08-31T08:45:26;1.95;;;1.60;;
75012;SDS011;63567;49.956;20.130;2023-08-31T08:47:57;2.42;;;1.80;;
75012;SDS011;63567;49.956;20.130;2023-08-31T08:50:22;1.98;;;1.55;;
75012;SDS011;63567;49.956;20.130;2023-08-31T08:52:48;2.40;;;1.90;;
75012;SDS011;63567;49.956;20.130;2023-08-31T08:55:14;2.45;;;2.00;;
75012;SDS011;63567;49.956;20.130;2023-08-31T08:57:40;2.53;;;1.65;;
75012;SDS011;63567;49.956;20.130;2023-08-31T09:00:06;3.00;;;1.97;;
75012;SDS011;63567;49.956;20.130;2023-08-31T09:02:31;4.18;;;1.77;;
75012;SDS011;63567;49.956;20.130;2023-08-31T09:04:57;2.80;;;2.10;;
75012;SDS011;63567;49.956;20.130;2023-08-31T09:07:22;2.30;;;1.70;;
75012;SDS011;63567;49.956;20.130;2023-08-31T09:09:49;2.72;;;1.90;;
75012;SDS011;63567;49.956;20.130;2023-08-31T09:12:16;2.30;;;1.95;;
75012;SDS011;63567;49.956;20.130;2023-08-31T09:14:41;2.10;;;1.70;;
75012;SDS011;63567;49.956;20.130;2023-08-31T09:17:06;2.30;;;2.10;;
75012;SDS011;63567;49.956;20.130;2023-08-31T09:19:31;2.67;;;2.10;;
75012;SDS011;63567;49.956;20.130;2023-08-31T09:21:57;2.20;;;1.90;;
75012;SDS011;63567;49.956;20.130;2023-08-31T09:24:22;2.20;;;1.60;;
75012;SDS011;63567;49.956;20.130;2023-08-31T09:26:57;3.03;;;2.40;;
75012;SDS011;63567;49.956;20.130;2023-08-31T09:31:49;2.33;;;2.13;;
75012;SDS011;63567;49.956;20.130;2023-08-31T09:34:14;2.40;;;1.83;;
75012;SDS011;63567;49.956;20.130;2023-08-31T09:36:40;2.42;;;1.85;;
75012;SDS011;63567;49.956;20.130;2023-08-31T09:39:06;2.15;;;1.60;;
75012;SDS011;63567;49.956;20.130;2023-08-31T09:41:32;2.40;;;2.20;;
75012;SDS011;63567;49.956;20.130;2023-08-31T09:44:14;3.08;;;2.17;;
75012;SDS011;63567;49.956;20.130;2023-08-31T09:46:44;2.83;;;1.92;;
75012;SDS011;63567;49.956;20.130;2023-08-31T09:49:12;2.90;;;1.92;;
75012;SDS011;63567;49.956;20.130;2023-08-31T09:51:39;2.50;;;2.25;;
75012;SDS011;63567;49.956;20.130;2023-08-31T09:54:09;2.80;;;1.83;;
75012;SDS011;63567;49.956;20.130;2023-08-31T09:56:39;2.67;;;1.70;;
75012;SDS011;63567;49.956;20.130;2023-08-31T09:59:07;2.45;;;1.92;;
75012;SDS011;63567;49.956;20.130;2023-08-31T10:01:33;2.85;;;2.00;;
75012;SDS011;63567;49.956;20.130;2023-08-31T10:03:59;2.55;;;1.63;;
75012;SDS011;63567;49.956;20.130;2023-08-31T10:06:24;2.25;;;1.63;;
75012;SDS011;63567;49.956;20.130;2023-08-31T10:08:50;2.47;;;2.28;;
75012;SDS011;63567;49.956;20.130;2023-08-31T10:11:16;2.50;;;1.70;;
75012;SDS011;63567;49.956;20.130;2023-08-31T10:13:43;2.50;;;1.85;;
75012;SDS011;63567;49.956;20.130;2023-08-31T10:16:10;2.45;;;2.20;;
75012;SDS011;63567;49.956;20.130;2023-08-31T10:18:36;2.53;;;2.10;;
75012;SDS011;63567;49.956;20.130;2023-08-31T10:21:02;2.30;;;1.90;;
75012;SDS011;63567;49.956;20.130;2023-08-31T10:23:28;2.22;;;1.80;;
75012;SDS011;63567;49.956;20.130;2023-08-31T10:31:05;3.03;;;2.75;;
75012;SDS011;63567;49.956;20.130;2023-08-31T10:33:43;2.47;;;2.17;;
75012;SDS011;63567;49.956;20.130;2023-08-31T10:36:20;2.17;;;1.98;;
75012;SDS011;63567;49.956;20.130;2023-08-31T10:38:46;2.47;;;1.60;;
75012;SDS011;63567;49.956;20.130;2023-08-31T10:41:21;2.33;;;1.85;;
75012;SDS011;63567;49.956;20.130;2023-08-31T10:51:36;2.95;;;2.35;;
75012;SDS011;63567;49.956;20.130;2023-08-31T10:54:08;2.05;;;1.80;;
75012;SDS011;63567;49.956;20.130;2023-08-31T11:07:39;2.20;;;1.90;;
75012;SDS011;63567;49.956;20.130;2023-08-31T11:10:15;2.63;;;2.28;;
75012;SDS011;63567;49.956;20.130;2023-08-31T11:12:42;3.08;;;2.88;;
75012;SDS011;63567;49.956;20.130;2023-08-31T11:15:11;2.42;;;2.22;;
75012;SDS011;63567;49.956;20.130;2023-08-31T11:17:38;3.00;;;2.80;;
75012;SDS011;63567;49.956;20.130;2023-08-31T11:20:05;2.63;;;2.35;;
75012;SDS011;63567;49.956;20.130;2023-08-31T11:22:31;2.53;;;2.10;;
75012;SDS011;63567;49.956;20.130;2023-08-31T11:24:57;2.55;;;2.17;;
75012;SDS011;63567;49.956;20.130;2023-08-31T11:27:23;2.97;;;2.75;;
75012;SDS011;63567;49.956;20.130;2023-08-31T11:29:50;3.03;;;2.72;;
75012;SDS011;63567;49.956;20.130;2023-08-31T11:32:15;2.67;;;2.00;;
75012;SDS011;63567;49.956;20.130;2023-08-31T11:34:41;2.60;;;2.40;;
75012;SDS011;63567;49.956;20.130;2023-08-31T11:37:07;2.88;;;2.67;;
75012;SDS011;63567;49.956;20.130;2023-08-31T11:39:34;3.40;;;3.15;;
75012;SDS011;63567;49.956;20.130;2023-08-31T11:41:59;3.23;;;3.03;;
75012;SDS011;63567;49.956;20.130;2023-08-31T11:44:24;3.37;;;3.07;;
75012;SDS011;63567;49.956;20.130;2023-08-31T11:46:50;3.22;;;2.95;;
75012;SDS011;63567;49.956;20.130;2023-08-31T11:49:17;4.63;;;4.32;;
75012;SDS011;63567;49.956;20.130;2023-08-31T11:51:43;2.97;;;2.67;;
75012;SDS011;63567;49.956;20.130;2023-08-31T11:54:10;3.70;;;3.40;;
75012;SDS011;63567;49.956;20.130;2023-08-31T11:56:42;3.30;;;3.00;;
75012;SDS011;63567;49.956;20.130;2023-08-31T11:59:15;3.10;;;2.80;;
75012;SDS011;63567;49.956;20.130;2023-08-31T12:01:45;3.53;;;3.22;;
75012;SDS011;63567;49.956;20.130;2023-08-31T12:04:21;5.93;;;5.63;;
75012;SDS011;63567;49.956;20.130;2023-08-31T12:06:50;3.40;;;3.10;;
75012;SDS011;63567;49.956;20.130;2023-08-31T12:09:17;3.28;;;2.97;;
75012;SDS011;63567;49.956;20.130;2023-08-31T12:11:48;3.90;;;3.60;;
75012;SDS011;63567;49.956;20.130;2023-08-31T12:14:18;4.93;;;4.63;;
75012;SDS011;63567;49.956;20.130;2023-08-31T12:16:59;3.28;;;2.97;;
75012;SDS011;63567;49.956;20.130;2023-08-31T12:21:54;5.07;;;4.78;;
75012;SDS011;63567;49.956;20.130;2023-08-31T12:24:19;5.10;;;4.77;;
75012;SDS011;63567;49.956;20.130;2023-08-31T12:26:44;4.67;;;4.37;;
75012;SDS011;63567;49.956;20.130;2023-08-31T12:29:09;4.77;;;4.43;;
75012;SDS011;63567;49.956;20.130;2023-08-31T12:31:35;5.67;;;5.33;;
75012;SDS011;63567;49.956;20.130;2023-08-31T12:34:01;4.85;;;4.55;;
75012;SDS011;63567;49.956;20.130;2023-08-31T12:36:29;5.40;;;5.10;;
75012;SDS011;63567;49.956;20.130;2023-08-31T12:38:55;5.38;;;5.07;;
75012;SDS011;63567;49.956;20.130;2023-08-31T12:41:20;4.90;;;4.60;;
75012;SDS011;63567;49.956;20.130;2023-08-31T12:43:45;6.63;;;6.30;;
75012;SDS011;63567;49.956;20.130;2023-08-31T12:46:11;5.67;;;5.27;;
75012;SDS011;63567;49.956;20.130;2023-08-31T12:48:38;6.32;;;6.03;;
75012;SDS011;63567;49.956;20.130;2023-08-31T12:51:03;13.18;;;12.68;;
75012;SDS011;63567;49.956;20.130;2023-08-31T12:53:29;5.13;;;4.83;;
75012;SDS011;63567;49.956;20.130;2023-08-31T12:55:54;6.40;;;6.05;;
75012;SDS011;63567;49.956;20.130;2023-08-31T12:58:19;5.47;;;5.17;;
75012;SDS011;63567;49.956;20.130;2023-08-31T13:00:46;6.25;;;5.85;;
75012;SDS011;63567;49.956;20.130;2023-08-31T13:03:14;6.53;;;6.22;;
75012;SDS011;63567;49.956;20.130;2023-08-31T13:05:39;7.07;;;6.67;;
75012;SDS011;63567;49.956;20.130;2023-08-31T13:08:05;8.90;;;8.48;;
75012;SDS011;63567;49.956;20.130;2023-08-31T13:10:31;6.25;;;5.88;;
75012;SDS011;63567;49.956;20.130;2023-08-31T13:12:56;5.80;;;5.50;;
75012;SDS011;63567;49.956;20.130;2023-08-31T13:15:22;7.25;;;6.85;;
75012;SDS011;63567;49.956;20.130;2023-08-31T13:17:47;7.70;;;7.30;;
75012;SDS011;63567;49.956;20.130;2023-08-31T13:20:12;8.57;;;8.17;;
75012;SDS011;63567;49.956;20.130;2023-08-31T13:22:38;6.55;;;6.15;;
75012;SDS011;63567;49.956;20.130;2023-08-31T13:25:04;7.93;;;7.43;;
75012;SDS011;63567;49.956;20.130;2023-08-31T13:27:29;16.98;;;16.35;;
75012;SDS011;63567;49.956;20.130;2023-08-31T13:29:55;8.65;;;8.25;;
75012;SDS011;63567;49.956;20.130;2023-08-31T13:32:20;8.30;;;7.97;;
75012;SDS011;63567;49.956;20.130;2023-08-31T13:34:45;8.60;;;8.20;;
75012;SDS011;63567;49.956;20.130;2023-08-31T13:37:11;9.27;;;8.77;;
75012;SDS011;63567;49.956;20.130;2023-08-31T13:39:36;8.00;;;7.60;;
75012;SDS011;63567;49.956;20.130;2023-08-31T13:42:02;14.30;;;13.73;;
75012;SDS011;63567;49.956;20.130;2023-08-31T13:44:28;8.65;;;8.13;;
75012;SDS011;63567;49.956;20.130;2023-08-31T13:46:54;22.83;;;22.02;;
75012;SDS011;63567;49.956;20.130;2023-08-31T13:49:20;8.17;;;7.77;;
75012;SDS011;63567;49.956;20.130;2023-08-31T13:51:45;7.07;;;6.77;;
75012;SDS011;63567;49.956;20.130;2023-08-31T13:54:10;7.32;;;6.82;;
75012;SDS011;63567;49.956;20.130;2023-08-31T13:56:36;7.90;;;7.50;;
75012;SDS011;63567;49.956;20.130;2023-08-31T13:59:01;7.90;;;7.50;;
75012;SDS011;63567;49.956;20.130;2023-08-31T14:01:27;7.88;;;7.47;;
75012;SDS011;63567;49.956;20.130;2023-08-31T14:03:53;6.03;;;5.72;;
75012;SDS011;63567;49.956;20.130;2023-08-31T14:06:18;7.22;;;6.82;;
75012;SDS011;63567;49.956;20.130;2023-08-31T14:08:43;9.10;;;8.68;;
75012;SDS011;63567;49.956;20.130;2023-08-31T14:11:09;6.43;;;6.03;;
75012;SDS011;63567;49.956;20.130;2023-08-31T14:13:34;8.63;;;8.23;;
75012;SDS011;63567;49.956;20.130;2023-08-31T14:16:00;8.30;;;7.90;;
75012;SDS011;63567;49.956;20.130;2023-08-31T14:18:29;7.85;;;7.45;;
75012;SDS011;63567;49.956;20.130;2023-08-31T14:20:55;7.10;;;6.72;;
75012;SDS011;63567;49.956;20.130;2023-08-31T14:23:21;11.23;;;10.75;;
75012;SDS011;63567;49.956;20.130;2023-08-31T14:25:46;9.57;;;9.13;;
75012;SDS011;63567;49.956;20.130;2023-08-31T14:28:11;11.53;;;11.03;;
75012;SDS011;63567;49.956;20.130;2023-08-31T14:30:37;8.07;;;7.63;;
75012;SDS011;63567;49.956;20.130;2023-08-31T14:33:03;9.90;;;9.43;;
75012;SDS011;63567;49.956;20.130;2023-08-31T14:35:29;15.98;;;15.38;;
75012;SDS011;63567;49.956;20.130;2023-08-31T14:37:54;7.83;;;7.43;;
75012;SDS011;63567;49.956;20.130;2023-08-31T14:40:19;9.50;;;9.10;;
75012;SDS011;63567;49.956;20.130;2023-08-31T14:42:44;10.20;;;9.60;;
75012;SDS011;63567;49.956;20.130;2023-08-31T14:45:10;8.53;;;8.13;;
75012;SDS011;63567;49.956;20.130;2023-08-31T14:47:35;10.75;;;10.25;;
75012;SDS011;63567;49.956;20.130;2023-08-31T14:50:00;8.73;;;8.27;;
75012;SDS011;63567;49.956;20.130;2023-08-31T14:52:26;8.70;;;8.30;;